Rockwood, ME

10:41 PM EDT on May 28, 2015 (GMT -0400)
Moosehead | | Change Station
CLOSE
Current Station
Personal Weather Station
Location: Maine, ME
Elevation: 1024 ft
Nearby Weather Stations

Elev 1024 ft 45.58 °N, 69.71 °W | Updated 13 minutes ago

Overcast
Overcast
59.7 °F
Feels Like 59.7 °F
N
3.7
Wind Variable Wind from West

Today
High -- | Low -- °F
--% Chance of Precip.
Yesterday
High -- | Low -- °F
Precip. -- in
4:55 AM 8:17 PM
Waxing Gibbous, 80% visible
Pressure 30.16 in
Visibility 10.0 miles
Clouds Overcast 3300 ft
Dew Point 59 °F
Humidity 99%
Rainfall 0.11 in
Snow Depth Not available.
UV 0 out of 12
Pollen 7.20 out of 12
Air Quality Not available.
Flu Activity Local Activity
METAR KMLT 290153Z AUTO 03006KT 10SM -RA OVC033 19/17 A3014 RMK AO2 RAB04E21B39 SLP211 P0000 T01890167

More Conditions Fewer Conditions

Pressure 30.16 in
Visibility 10.0 miles
Clouds Overcast 3300 ft
Dew Point 59 °F
Humidity 99%
Rainfall 0.11 in
Snow Depth Not available.
UV 0 out of 12
Pollen 7.20 out of 12
Air Quality Not available.
Flu Activity Local Activity
METAR KMLT 290153Z AUTO 03006KT 10SM -RA OVC033 19/17 A3014 RMK AO2 RAB04E21B39 SLP211 P0000 T01890167

More Conditions Fewer Conditions

10-Day Weather Forecast

Almanac

Astronomy

May. 28, 2015 Rise Set
Actual Time
Civil Twilight
Nautical Twilight
Astronomical Twilight
Moon
Length of Visible Light
Length of Day
Tomorrow will be .
, % of the Moon is Illuminated

Today's Extremes

State Highs State Lows

Community

WunderPhotos

Upload Photos

1,825,146 photos uploaded!

WunderBlogs® & News

Nearby

Air Quality

  Air Quality AQ Index Pollutant
Not available.

Snow Depth

Station Depth Elevation

Earthquake Activity

City Distance Mag. Time & Date
Minimum magnitude displayed is 2.5.

Coastal Water Temperatures

Place Temperature

Stations

Nearby Weather Stations

Station Location Temp. Windchill Dew Point Humidity Wind Precip. Elev Updated Type